Time;durP1;ratioP1;P1;durP2;ratioP2;P2;SDS_P1;SDS_P2;PMS_P1;PMS_P2;Temp;Humidity;BMP_temperature;BMP_pressure;BME280_temperature;BME280_humidity;BME280_pressure;Samples;Min_cycle;Max_cycle;Signal;HPM_P1;HPM_P2
2022/09/15 00:01:39;;;;;;;;;;;20.30;64.40;;;16.41;92.31;94918.28;4976259;28;19921;-45
2022/09/15 00:04:08;;;;;;;;;;;20.30;64.40;;;16.42;92.75;94919.84;5009649;28;19917;-44
2022/09/15 00:06:35;;;;;;;;;;;20.30;64.40;;;16.40;93.22;94916.72;5010558;28;19962;-45
2022/09/15 00:09:04;;;;;;;;;;;20.30;64.40;;;16.39;93.12;94923.19;4978377;28;19955;-44
2022/09/15 00:11:33;;;;;;;;;;;20.30;64.30;;;16.36;93.28;94913.88;4996279;28;19917;-46
2022/09/15 00:14:02;;;;;;;;;;;20.30;64.40;;;16.30;93.25;94915.13;4998639;28;19916;-45
2022/09/15 00:16:31;;;;;;;;;;;20.20;64.30;;;16.26;93.18;94905.31;4982040;28;20287;-45
2022/09/15 00:18:59;;;;;;;;;;;20.20;64.30;;;16.23;93.23;94901.38;4977271;28;20004;-47
2022/09/15 00:21:29;;;;;;;;;;;20.20;64.40;;;16.19;93.17;94906.59;4981756;28;19917;-44
2022/09/15 00:23:56;;;;;;;;;;;20.20;64.50;;;16.17;93.13;94899.97;4996634;28;19909;-44
2022/09/15 00:26:24;;;;;;;;;;;20.10;64.60;;;16.14;92.75;94890.66;4996726;28;19931;-44
2022/09/15 00:28:55;;;;;;;;;;;20.10;64.60;;;16.13;93.24;94889.03;4991396;28;19921;-45
2022/09/15 00:31:26;;;;;;;;;;;20.10;64.70;;;16.07;91.98;94887.63;4960796;28;19916;-45
2022/09/15 00:33:55;;;;;;;;;;;20.00;64.70;;;16.08;92.87;94883.06;4963917;28;19996;-46
2022/09/15 00:36:23;;;;;;;;;;;20.00;64.90;;;16.07;93.02;94876.88;4984008;28;19916;-45
2022/09/15 00:38:56;;;;;;;;;;;20.00;64.90;;;16.02;93.24;94873.56;4990779;28;19913;-45
2022/09/15 00:41:25;;;;;;;;;;;19.90;64.80;;;16.01;93.28;94871.97;4992906;28;19916;-45
2022/09/15 00:43:56;;;;;;;;;;;19.90;64.80;;;15.96;93.05;94868.34;5013949;28;20377;-45
2022/09/15 00:46:41;;;;;;;;;;;19.90;64.80;;;15.98;92.84;94862.66;4993332;28;20371;-51
2022/09/15 00:49:31;;;;;;;;;;;19.80;64.70;;;15.95;92.85;94860.59;5004618;28;20011;-44
2022/09/15 00:52:07;;;;;;;;;;;19.80;64.80;;;15.92;92.67;94858.56;4971054;28;20020;-44
2022/09/15 00:55:01;;;;;;;;;;;19.80;64.80;;;15.92;93.18;94853.97;4992266;28;20330;-45
2022/09/15 00:57:33;;;;;;;;;;;19.80;64.80;;;15.87;92.31;94837.22;4991258;28;19909;-45
2022/09/15 01:00:05;;;;;;;;;;;19.80;64.90;;;15.90;92.83;94844.66;4986582;28;20394;-47
2022/09/15 01:02:36;;;;;;;;;;;19.80;64.90;;;15.85;92.92;94839.44;4978762;28;20028;-45
2022/09/15 01:05:09;;;;;;;;;;;19.70;64.80;;;15.83;93.05;94842.44;4982594;28;19937;-44
2022/09/15 01:08:09;;;;;;;;;;;19.70;64.80;;;15.82;93.46;94848.13;4963268;28;20004;-44
2022/09/15 01:10:40;;;;;;;;;;;19.70;64.90;;;15.79;93.90;94846.84;4992259;28;19913;-44
2022/09/15 01:13:13;;;;;;;;;;;19.70;64.90;;;15.75;93.98;94850.50;4992436;28;20260;-46
2022/09/15 01:16:23;;;;;;;;;;;19.70;64.90;;;15.71;93.69;94847.66;4990739;28;20000;-52
2022/09/15 01:19:10;;;;;;;;;;;19.70;65.00;;;15.72;94.35;94852.69;4993305;28;19909;-46
2022/09/15 01:21:59;;;;;;;;;;;19.70;65.00;;;15.68;94.78;94851.75;4991688;28;20597;-45
2022/09/15 01:24:51;;;;;;;;;;;19.60;65.10;;;15.66;95.14;94855.81;4982026;28;19909;-45
2022/09/15 01:27:58;;;;;;;;;;;19.60;65.30;;;15.66;94.83;94861.97;4991307;28;19936;-47
2022/09/15 01:30:25;;;;;;;;;;;19.50;65.20;;;15.66;94.94;94861.19;4992422;28;19964;-45
2022/09/15 01:33:26;;;;;;;;;;;19.50;65.30;;;15.65;95.46;94867.66;4991204;28;19916;-45
2022/09/15 01:36:31;;;;;;;;;;;19.50;65.50;;;15.64;95.17;94855.34;4973747;28;19909;-48
2022/09/15 01:39:24;;;;;;;;;;;19.50;65.50;;;15.66;94.83;94863.88;4950149;28;20376;-45
2022/09/15 01:41:59;;;;;;;;;;;19.50;65.50;;;15.66;94.77;94856.59;4991685;28;19914;-44
2022/09/15 01:44:36;;;;;;;;;;;19.50;65.50;;;15.68;94.93;94864.38;4975862;28;19909;-47
2022/09/15 01:47:10;;;;;;;;;;;19.50;65.50;;;15.65;94.98;94856.91;4972912;28;20280;-46
2022/09/15 01:50:22;;;;;;;;;;;19.50;65.40;;;15.61;95.56;94851.41;4972435;28;20367;-46
2022/09/15 01:53:21;;;;;;;;;;;19.50;65.30;;;15.54;95.95;94853.72;4989426;28;19945;-46
2022/09/15 01:56:05;;;;;;;;;;;19.50;65.30;;;15.47;95.49;94845.34;4991730;28;19963;-49
2022/09/15 01:58:36;;;;;;;;;;;19.50;65.40;;;15.48;96.19;94844.25;4992132;28;20319;-45
2022/09/15 02:01:21;;;;;;;;;;;19.40;65.50;;;15.49;96.22;94829.75;4975503;28;20004;-45
2022/09/15 02:04:05;;;;;;;;;;;19.50;65.70;;;15.50;95.60;94828.63;4980561;28;19921;-46
2022/09/15 02:06:44;;;;;;;;;;;19.50;65.80;;;15.55;94.95;94812.38;4992745;28;20004;-46
2022/09/15 02:09:35;;;;;;;;;;;19.40;65.80;;;15.57;94.62;94812.06;4990527;28;20434;-46
2022/09/15 02:12:58;;;;;;;;;;;19.50;65.90;;;15.63;93.94;94808.91;4979285;28;19914;-47
2022/09/15 02:15:32;;;;;;;;;;;19.50;65.90;;;15.66;93.20;94799.44;4995720;28;20385;-49
2022/09/15 02:18:04;;;;;;;;;;;19.50;65.80;;;15.66;93.07;94797.53;4971822;28;19960;-46
2022/09/15 02:20:37;;;;;;;;;;;19.50;65.70;;;15.68;92.97;94802.63;4971075;28;20443;-46
2022/09/15 02:23:20;;;;;;;;;;;19.60;65.70;;;15.66;93.25;94805.59;4991542;28;20004;-45
2022/09/15 02:26:05;;;;;;;;;;;19.60;65.50;;;15.65;93.11;94811.28;4975481;28;20275;-47
2022/09/15 02:28:36;;;;;;;;;;;19.60;65.40;;;15.64;93.24;94815.09;4991532;28;20000;-46
2022/09/15 02:31:09;;;;;;;;;;;19.60;65.40;;;15.62;93.33;94814.59;4990427;28;19921;-46
2022/09/15 02:33:48;;;;;;;;;;;19.60;65.30;;;15.62;93.87;94819.97;4982561;28;19921;-45
2022/09/15 02:36:19;;;;;;;;;;;19.60;65.30;;;15.56;93.98;94823.91;4991254;28;19932;-45
2022/09/15 02:39:04;;;;;;;;;;;19.50;65.10;;;15.53;94.99;94814.59;4991498;28;19996;-45
2022/09/15 02:41:31;;;;;;;;;;;19.50;65.10;;;15.43;95.53;94812.22;4955929;28;19922;-50
2022/09/15 02:43:57;;;;;;;;;;;19.50;65.00;;;15.38;95.78;94804.28;4990973;28;19972;-48
2022/09/15 02:46:23;;;;;;;;;;;19.40;65.00;;;15.27;96.19;94804.59;4992619;28;20357;-45
2022/09/15 02:48:52;;;;;;;;;;;19.40;65.00;;;15.20;96.50;94804.28;4955233;28;20423;-47
2022/09/15 02:51:21;;;;;;;;;;;19.30;65.00;;;15.14;95.90;94802.06;4978265;28;19913;-49
2022/09/15 02:53:47;;;;;;;;;;;19.30;65.20;;;15.12;95.73;94804.25;4976660;28;19920;-46
2022/09/15 02:56:18;;;;;;;;;;;19.20;65.20;;;15.14;95.48;94810.09;4972383;28;19914;-45
2022/09/15 02:58:47;;;;;;;;;;;19.20;65.40;;;15.16;95.31;94816.72;4986598;28;20462;-46
2022/09/15 03:01:14;;;;;;;;;;;19.20;65.50;;;15.15;94.99;94819.72;4970429;28;19910;-51
2022/09/15 03:03:45;;;;;;;;;;;19.20;65.50;;;15.09;95.63;94811.03;4978064;28;20350;-47
2022/09/15 03:06:15;;;;;;;;;;;19.20;65.50;;;15.00;96.70;94821.72;4970075;28;19914;-45
2022/09/15 03:08:54;;;;;;;;;;;19.10;65.30;;;14.89;97.97;94820.44;4978758;28;20012;-45
2022/09/15 03:11:23;;;;;;;;;;;19.10;65.30;;;14.86;98.15;94829.09;4986580;28;20391;-45
2022/09/15 03:14:01;;;;;;;;;;;19.00;65.30;;;14.85;99.05;94835.53;4972046;28;19925;-47
2022/09/15 03:16:30;;;;;;;;;;;19.00;66.20;;;14.83;100.00;94836.97;4972674;28;20288;-49
2022/09/15 03:18:58;;;;;;;;;;;19.00;65.50;;;14.89;99.50;94833.84;4972067;28;19995;-45
2022/09/15 03:21:28;;;;;;;;;;;19.00;65.60;;;14.94;99.37;94839.03;4975251;28;20379;-45
2022/09/15 03:23:56;;;;;;;;;;;19.00;65.70;;;14.93;99.89;94840.16;4989874;28;19918;-45
2022/09/15 03:26:24;;;;;;;;;;;19.00;66.40;;;14.94;99.53;94841.72;4977965;28;19916;-45
2022/09/15 03:28:56;;;;;;;;;;;19.00;65.70;;;14.92;100.00;94838.59;4996269;28;19910;-46
2022/09/15 03:31:21;;;;;;;;;;;19.00;65.70;;;14.92;100.00;94848.53;4971190;28;20024;-45
2022/09/15 03:33:49;;;;;;;;;;;19.00;65.70;;;14.92;99.70;94843.16;4980028;28;27783;-45
2022/09/15 03:36:21;;;;;;;;;;;19.00;65.70;;;14.90;100.00;94840.78;4976439;28;19956;-46
2022/09/15 03:38:50;;;;;;;;;;;19.00;65.70;;;14.89;100.00;94838.41;4970954;28;19914;-49
2022/09/15 03:41:16;;;;;;;;;;;19.00;65.70;;;14.86;100.00;94842.50;4989366;28;19909;-48
2022/09/15 03:43:44;;;;;;;;;;;19.00;65.80;;;14.85;100.00;94835.53;4993464;28;20395;-45
2022/09/15 03:46:11;;;;;;;;;;;18.90;65.70;;;14.87;100.00;94837.94;4994115;28;19921;-45
2022/09/15 03:48:39;;;;;;;;;;;18.90;65.80;;;14.80;100.00;94841.84;4994233;28;19922;-47
2022/09/15 03:51:07;;;;;;;;;;;18.90;65.80;;;14.78;100.00;94833.31;4993901;28;19909;-45
2022/09/15 03:53:39;;;;;;;;;;;18.90;65.90;;;14.75;100.00;94830.47;4993260;28;20435;-46
2022/09/15 03:56:10;;;;;;;;;;;18.90;65.90;;;14.72;100.00;94823.81;4993929;28;20288;-45
2022/09/15 03:58:37;;;;;;;;;;;18.80;65.80;;;14.67;100.00;94828.53;4992468;28;19913;-45
2022/09/15 04:01:13;;;;;;;;;;;18.80;65.90;;;14.61;100.00;94827.88;4992533;28;20059;-47
2022/09/15 04:03:40;;;;;;;;;;;18.70;65.90;;;14.63;100.00;94824.88;4978083;28;20371;-48
2022/09/15 04:06:06;;;;;;;;;;;18.70;66.00;;;14.62;100.00;94823.31;4993784;28;20036;-45
2022/09/15 04:08:32;;;;;;;;;;;18.70;66.00;;;14.60;100.00;94822.81;4994759;28;20336;-49
2022/09/15 04:11:04;;;;;;;;;;;18.70;66.00;;;14.55;100.00;94813.81;4992623;28;19910;-45
2022/09/15 04:13:41;;;;;;;;;;;18.70;66.00;;;14.49;100.00;94808.88;4958951;28;19968;-48
2022/09/15 04:16:12;;;;;;;;;;;18.60;66.10;;;14.48;100.00;94816.13;4996752;28;19948;-45
2022/09/15 04:18:41;;;;;;;;;;;18.60;66.10;;;14.47;100.00;94811.06;4958204;28;19941;-46
2022/09/15 04:21:12;;;;;;;;;;;18.60;66.20;;;14.43;100.00;94810.88;4960290;28;19920;-46
2022/09/15 04:23:50;;;;;;;;;;;18.60;66.30;;;14.41;100.00;94802.34;4979908;28;19914;-44
2022/09/15 04:26:42;;;;;;;;;;;18.50;66.30;;;14.41;100.00;94812.28;4992563;28;19910;-45
2022/09/15 04:29:14;;;;;;;;;;;18.50;66.30;;;14.41;100.00;94812.28;4973704;28;19917;-45
2022/09/15 04:31:40;;;;;;;;;;;18.50;66.40;;;14.41;100.00;94818.44;4957259;28;19913;-48
2022/09/15 04:34:24;;;;;;;;;;;18.60;66.50;;;14.45;100.00;94813.28;4978901;28;19920;-45
2022/09/15 04:36:50;;;;;;;;;;;18.60;66.60;;;14.49;100.00;94809.66;4974765;28;19913;-44
2022/09/15 04:39:15;;;;;;;;;;;18.60;66.70;;;14.53;100.00;94812.53;4977666;28;19916;-44
2022/09/15 04:41:41;;;;;;;;;;;18.70;66.70;;;14.56;100.00;94818.06;4962091;28;19935;-45
2022/09/15 04:44:07;;;;;;;;;;;18.70;66.70;;;14.64;100.00;94816.53;4973380;28;19914;-46
2022/09/15 04:46:33;;;;;;;;;;;18.80;66.80;;;14.68;100.00;94812.13;4989078;28;19909;-46
2022/09/15 04:48:59;;;;;;;;;;;18.80;66.70;;;14.73;100.00;94812.00;4993022;28;19913;-48
2022/09/15 04:51:26;;;;;;;;;;;18.80;66.60;;;14.77;100.00;94807.59;5002409;28;19910;-48
2022/09/15 04:53:52;;;;;;;;;;;18.90;66.60;;;14.80;100.00;94811.56;4976328;28;20375;-45
2022/09/15 04:56:24;;;;;;;;;;;18.90;66.60;;;14.86;100.00;94812.22;4994283;28;20000;-46
2022/09/15 04:58:54;;;;;;;;;;;18.90;66.50;;;14.86;100.00;94813.00;4992803;28;19920;-48
2022/09/15 05:01:33;;;;;;;;;;;19.00;66.60;;;14.94;100.00;94814.13;4992393;28;19917;-46
2022/09/15 05:04:05;;;;;;;;;;;19.00;66.60;;;15.00;100.00;94815.56;4981724;28;19925;-46
2022/09/15 05:06:33;;;;;;;;;;;19.10;66.60;;;15.02;100.00;94816.84;4957546;28;19917;-45
2022/09/15 05:09:00;;;;;;;;;;;19.10;66.50;;;15.03;100.00;94813.06;4976015;28;19962;-45
2022/09/15 05:11:29;;;;;;;;;;;19.10;66.40;;;15.05;100.00;94815.44;4992080;28;19910;-45
2022/09/15 05:13:59;;;;;;;;;;;19.20;66.50;;;15.08;100.00;94817.50;4994018;28;19914;-50
2022/09/15 05:16:30;;;;;;;;;;;19.20;66.40;;;15.08;99.99;94820.19;4980508;28;20372;-45
2022/09/15 05:19:01;;;;;;;;;;;19.30;66.40;;;15.10;99.70;94817.19;4983176;28;19952;-47
2022/09/15 05:21:31;;;;;;;;;;;19.30;66.30;;;15.11;97.60;94816.88;4983565;28;19909;-47
2022/09/15 05:24:00;;;;;;;;;;;19.30;66.40;;;15.18;97.62;94808.38;4973994;28;19910;-45
2022/09/15 05:26:28;;;;;;;;;;;19.40;66.50;;;15.28;97.70;94813.44;4972857;28;19960;-45
2022/09/15 05:28:57;;;;;;;;;;;19.40;66.40;;;15.31;97.28;94817.41;4962126;28;19909;-46
2022/09/15 05:31:32;;;;;;;;;;;19.40;66.30;;;15.29;94.76;94820.38;4988307;28;20373;-45
2022/09/15 05:34:02;;;;;;;;;;;19.50;66.40;;;15.38;93.59;94820.41;4983429;28;19910;-46
2022/09/15 05:36:29;;;;;;;;;;;19.50;66.60;;;15.47;93.08;94805.09;4992945;28;19964;-46
2022/09/15 05:38:56;;;;;;;;;;;19.60;66.60;;;15.53;91.71;94806.53;4991236;28;19920;-48
2022/09/15 05:41:23;;;;;;;;;;;19.60;66.40;;;15.59;90.15;94804.50;4983863;28;19913;-45
2022/09/15 05:43:49;;;;;;;;;;;19.60;66.40;;;15.69;89.92;94806.88;4986641;28;19916;-47
2022/09/15 05:46:19;;;;;;;;;;;19.70;66.30;;;15.77;88.52;94811.47;4988042;28;19909;-45
2022/09/15 05:48:45;;;;;;;;;;;19.80;66.20;;;15.86;87.82;94806.91;4986926;28;20402;-47
2022/09/15 05:51:14;;;;;;;;;;;19.80;66.10;;;15.95;87.44;94810.38;4973921;28;19921;-47
2022/09/15 05:53:46;;;;;;;;;;;19.90;66.00;;;16.00;87.90;94814.00;4979930;28;19953;-46
2022/09/15 05:56:16;;;;;;;;;;;20.00;65.80;;;16.05;87.03;94820.00;4988696;28;19909;-48
2022/09/15 05:58:45;;;;;;;;;;;20.00;65.70;;;16.09;87.08;94817.47;4984713;28;19916;-46
2022/09/15 06:01:19;;;;;;;;;;;20.10;65.50;;;16.10;85.87;94821.72;4955670;28;20068;-45
2022/09/15 06:03:46;;;;;;;;;;;20.10;65.30;;;16.17;86.57;94825.53;4955802;28;19973;-46
2022/09/15 06:06:12;;;;;;;;;;;20.20;65.20;;;16.18;85.76;94821.72;4984194;28;19909;-45
2022/09/15 06:08:47;;;;;;;;;;;20.30;65.00;;;16.25;86.55;94821.25;4952942;28;22240;-47
2022/09/15 06:11:17;;;;;;;;;;;20.30;64.80;;;16.25;85.89;94817.75;4971927;28;20393;-46
2022/09/15 06:13:45;;;;;;;;;;;20.30;64.70;;;16.21;85.47;94816.84;4991302;28;20008;-47
2022/09/15 06:16:15;;;;;;;;;;;20.40;64.60;;;16.21;85.35;94820.31;4985580;28;19952;-46
2022/09/15 06:18:42;;;;;;;;;;;20.40;64.40;;;16.19;85.11;94817.13;4992715;28;19959;-45
2022/09/15 06:21:28;;;;;;;;;;;20.40;64.30;;;16.20;85.32;94818.72;4989755;28;19914;-48
2022/09/15 06:24:00;;;;;;;;;;;20.40;64.20;;;16.21;85.14;94822.22;4991405;28;19913;-46
2022/09/15 06:26:27;;;;;;;;;;;20.40;64.10;;;16.26;85.62;94830.09;4991118;28;20360;-48
2022/09/15 06:29:02;;;;;;;;;;;20.50;64.00;;;16.26;85.03;94827.41;4990337;28;19910;-47
2022/09/15 06:31:31;;;;;;;;;;;20.50;64.00;;;16.33;84.99;94833.88;4991825;28;19916;-50
2022/09/15 06:33:58;;;;;;;;;;;20.60;63.90;;;16.40;84.97;94839.56;4980576;28;19913;-47
2022/09/15 06:36:29;;;;;;;;;;;20.60;63.80;;;16.46;84.48;94842.09;4971583;28;19930;-45
2022/09/15 06:38:56;;;;;;;;;;;20.80;63.80;;;16.51;84.42;94844.59;4971296;28;19909;-46
2022/09/15 06:41:25;;;;;;;;;;;20.80;63.60;;;16.61;83.68;94844.28;4987144;28;19909;-46
2022/09/15 06:43:57;;;;;;;;;;;20.90;63.50;;;16.65;83.40;94854.03;4972542;28;20388;-48
2022/09/15 06:46:25;;;;;;;;;;;21.00;63.30;;;16.68;83.21;94851.84;4959473;28;19968;-50
2022/09/15 06:48:52;;;;;;;;;;;21.00;63.10;;;16.70;83.30;94863.81;4971326;28;19910;-47
2022/09/15 06:51:24;;;;;;;;;;;21.10;63.00;;;16.68;83.03;94862.59;4979026;28;19913;-48
2022/09/15 06:53:56;;;;;;;;;;;21.20;62.90;;;16.69;82.88;94862.25;4988540;28;19914;-50
2022/09/15 06:56:22;;;;;;;;;;;21.20;62.70;;;16.80;83.31;94865.44;4971451;28;20281;-45
2022/09/15 06:58:49;;;;;;;;;;;21.30;62.50;;;16.84;83.02;94863.69;4955322;28;19920;-51
2022/09/15 07:01:27;;;;;;;;;;;21.40;62.40;;;16.86;82.70;94864.94;4980465;28;19913;-51
2022/09/15 07:03:58;;;;;;;;;;;21.50;62.20;;;16.92;81.96;94864.75;4978941;28;20024;-48
2022/09/15 07:06:32;;;;;;;;;;;21.50;62.00;;;16.90;82.05;94867.00;4991931;28;19917;-46
2022/09/15 07:09:01;;;;;;;;;;;21.60;61.80;;;16.97;82.77;94868.06;4991027;28;19910;-52
2022/09/15 07:11:28;;;;;;;;;;;21.70;61.60;;;17.06;81.94;94866.13;4975395;28;19960;-46
2022/09/15 07:14:00;;;;;;;;;;;21.80;61.50;;;17.16;81.89;94870.34;4972468;28;19909;-46
2022/09/15 07:16:29;;;;;;;;;;;21.90;61.40;;;17.21;81.35;94867.50;4982167;28;19910;-46
2022/09/15 07:18:56;;;;;;;;;;;21.90;61.20;;;17.19;81.31;94877.78;4981081;28;20367;-46
2022/09/15 07:21:23;;;;;;;;;;;21.90;61.10;;;17.28;81.62;94885.84;4974522;28;20324;-51
2022/09/15 07:23:49;;;;;;;;;;;21.90;61.00;;;17.25;82.71;94895.34;4954908;28;20285;-46
2022/09/15 07:26:29;;;;;;;;;;;22.00;61.00;;;17.24;83.07;94903.75;4970894;28;19910;-47
2022/09/15 07:29:05;;;;;;;;;;;22.00;60.90;;;17.24;83.99;94906.44;4976847;28;19932;-47
2022/09/15 07:31:43;;;;;;;;;;;21.90;61.50;;;17.13;84.71;94924.03;4961139;28;19909;-50
2022/09/15 07:34:09;;;;;;;;;;;21.90;60.70;;;17.12;85.77;94920.56;4987956;28;19916;-50
2022/09/15 07:36:35;;;;;;;;;;;21.80;60.80;;;17.04;85.74;94922.16;4990176;28;19909;-46
2022/09/15 07:39:03;;;;;;;;;;;21.80;60.80;;;16.98;87.29;94936.09;4988991;28;20308;-49
2022/09/15 07:41:31;;;;;;;;;;;21.80;60.90;;;16.95;87.46;94936.75;4973842;28;19909;-48
2022/09/15 07:44:12;;;;;;;;;;;21.70;60.90;;;16.86;87.62;94942.16;4990206;28;20349;-46
2022/09/15 07:46:47;;;;;;;;;;;21.60;61.00;;;16.88;86.77;94921.09;4993732;28;19917;-48
2022/09/15 07:49:15;;;;;;;;;;;21.50;61.20;;;16.96;87.34;94914.91;4971592;28;19909;-48
2022/09/15 07:51:47;;;;;;;;;;;21.50;61.20;;;17.02;87.85;94923.59;4974390;28;19918;-46
2022/09/15 07:54:16;;;;;;;;;;;21.60;61.30;;;17.03;89.29;94909.81;4970685;28;19957;-47
2022/09/15 07:56:42;;;;;;;;;;;21.60;61.30;;;17.09;89.08;94915.81;4954617;28;20312;-51
2022/09/15 07:59:10;;;;;;;;;;;21.70;61.30;;;17.11;88.70;94914.41;4982174;28;19910;-47
2022/09/15 08:01:42;;;;;;;;;;;21.70;61.40;;;17.04;88.99;94913.28;4971255;28;20714;-47
2022/09/15 08:04:11;;;;;;;;;;;21.70;61.40;;;17.08;88.77;94920.41;4956851;28;19924;-47
2022/09/15 08:06:40;;;;;;;;;;;21.70;61.50;;;17.11;89.06;94927.84;4955856;28;19914;-47
2022/09/15 08:09:05;;;;;;;;;;;21.70;61.50;;;17.09;89.01;94926.59;4970686;28;19909;-47
2022/09/15 08:11:40;;;;;;;;;;;21.80;61.60;;;17.06;90.58;94938.00;4971335;28;19910;-47
2022/09/15 08:14:09;;;;;;;;;;;21.80;61.40;;;17.10;90.25;94930.84;4971029;28;20482;-47
2022/09/15 08:16:35;;;;;;;;;;;21.90;61.40;;;17.04;90.56;94938.28;4970375;28;20000;-53
2022/09/15 08:19:11;;;;;;;;;;;21.90;61.30;;;17.05;90.78;94931.81;4971402;28;20004;-47
2022/09/15 08:21:39;;;;;;;;;;;22.00;61.40;;;16.97;91.77;94934.53;4968942;28;19913;-50
2022/09/15 08:24:05;;;;;;;;;;;21.90;61.30;;;16.98;90.96;94942.25;4956764;28;19910;-47
2022/09/15 08:26:37;;;;;;;;;;;21.90;61.40;;;16.94;90.88;94943.25;4970206;28;19921;-46
2022/09/15 08:29:06;;;;;;;;;;;21.90;61.40;;;16.95;91.78;94953.66;4970410;28;19909;-50
2022/09/15 08:31:32;;;;;;;;;;;21.90;61.50;;;16.77;92.22;94944.84;4970115;28;19910;-52
2022/09/15 08:34:02;;;;;;;;;;;21.90;61.70;;;16.69;91.72;94944.84;4967579;28;19933;-47
2022/09/15 08:36:30;;;;;;;;;;;21.80;61.80;;;16.71;91.73;94953.38;4971961;28;19941;-46
2022/09/15 08:38:56;;;;;;;;;;;21.70;61.90;;;16.71;92.18;94950.69;4967989;28;19918;-47
2022/09/15 08:41:30;;;;;;;;;;;21.70;62.00;;;16.75;91.35;94955.13;4969892;28;19964;-47
2022/09/15 08:44:07;;;;;;;;;;;21.70;62.00;;;16.74;93.97;94960.81;4968222;28;19981;-49
2022/09/15 08:46:53;;;;;;;;;;;21.70;62.10;;;16.84;94.22;94968.56;4972693;28;19914;-46
2022/09/15 08:49:45;;;;;;;;;;;21.70;62.30;;;16.76;92.35;94961.28;4983427;28;19913;-49
2022/09/15 08:52:29;;;;;;;;;;;21.60;62.40;;;16.76;92.60;94969.38;4965858;28;20355;-49
2022/09/15 08:55:00;;;;;;;;;;;21.50;62.40;;;16.75;92.95;94965.06;4965872;28;20320;-47
2022/09/15 08:57:26;;;;;;;;;;;21.50;62.50;;;16.69;93.34;94963.66;4967157;28;20399;-48
2022/09/15 08:59:53;;;;;;;;;;;21.50;62.60;;;16.58;95.07;94968.56;4955934;28;19932;-45
2022/09/15 09:02:57;;;;;;;;;;;21.40;62.70;;;16.56;94.10;94973.47;4968658;28;19918;-46
2022/09/15 09:05:44;;;;;;;;;;;21.30;62.90;;;16.47;92.85;94972.69;4994990;28;19920;-48
2022/09/15 09:08:28;;;;;;;;;;;21.30;63.10;;;16.56;94.07;94960.03;5005599;28;20462;-47
2022/09/15 09:11:09;;;;;;;;;;;21.20;63.10;;;16.59;94.68;94962.09;4989826;28;19916;-47
2022/09/15 09:14:16;;;;;;;;;;;21.20;63.30;;;16.60;93.25;94967.13;4994349;28;19909;-47
2022/09/15 09:16:56;;;;;;;;;;;21.20;63.50;;;16.49;93.73;94971.25;5004802;28;19913;-47
2022/09/15 09:20:18;;;;;;;;;;;21.20;63.70;;;16.56;93.52;94968.88;5004061;28;20347;-46
2022/09/15 09:22:51;;;;;;;;;;;21.30;63.70;;;16.61;93.58;94978.69;4997570;28;20358;-48
2022/09/15 09:25:20;;;;;;;;;;;21.30;63.70;;;16.63;92.51;94973.78;4983505;28;20434;-49
2022/09/15 09:27:48;;;;;;;;;;;21.40;63.70;;;16.64;93.27;94976.16;4977236;28;20061;-48
2022/09/15 09:30:18;;;;;;;;;;;21.50;63.70;;;16.72;92.82;94971.09;4988025;28;19916;-47
2022/09/15 09:32:49;;;;;;;;;;;21.40;63.60;;;16.71;92.83;94974.91;5003886;28;20353;-49
2022/09/15 09:35:27;;;;;;;;;;;21.40;63.60;;;16.64;92.53;94970.78;4999902;28;19913;-48
2022/09/15 09:37:54;;;;;;;;;;;21.40;63.60;;;16.71;93.03;94969.50;4991345;28;19948;-48
2022/09/15 09:40:21;;;;;;;;;;;21.40;63.70;;;16.69;92.68;94961.75;4943625;28;20375;-47
2022/09/15 09:42:48;;;;;;;;;;;21.40;63.80;;;16.59;92.75;94959.41;4989386;28;19923;-50
2022/09/15 09:45:17;;;;;;;;;;;21.30;63.70;;;16.62;94.02;94964.13;5000507;28;20003;-49
2022/09/15 09:47:45;;;;;;;;;;;21.40;63.80;;;16.63;93.81;94957.66;4980182;28;19999;-48
2022/09/15 09:50:38;;;;;;;;;;;21.40;63.80;;;16.64;94.41;94957.34;4994042;28;20367;-49
2022/09/15 09:53:33;;;;;;;;;;;21.30;63.80;;;16.65;93.97;94942.78;4982552;28;19917;-47
2022/09/15 09:56:31;;;;;;;;;;;21.40;63.80;;;16.61;95.16;94943.75;5004470;28;20414;-46
2022/09/15 09:59:02;;;;;;;;;;;21.40;64.00;;;16.61;94.21;94946.44;4943607;28;19923;-52
2022/09/15 10:01:30;;;;;;;;;;;21.40;64.00;;;16.69;94.41;94951.00;4993499;28;19940;-46
2022/09/15 10:04:18;;;;;;;;;;;21.40;64.00;;;16.74;93.65;94950.06;4991268;28;20326;-49
2022/09/15 10:06:44;;;;;;;;;;;21.50;64.00;;;16.64;93.97;94946.59;5006971;28;20360;-47
2022/09/15 10:09:18;;;;;;;;;;;21.50;63.90;;;16.61;94.15;94941.84;4988821;28;20368;-47
2022/09/15 10:11:51;;;;;;;;;;;21.50;63.90;;;16.65;93.71;94940.09;4977278;28;19920;-47
2022/09/15 10:14:39;;;;;;;;;;;21.50;64.00;;;16.78;94.30;94941.06;4989872;28;19913;-47
2022/09/15 10:17:14;;;;;;;;;;;21.60;64.00;;;16.91;94.12;94944.66;5007676;28;19944;-49
2022/09/15 10:19:58;;;;;;;;;;;21.70;63.90;;;16.76;91.65;94940.56;4986528;28;19913;-49
2022/09/15 10:22:43;;;;;;;;;;;21.80;63.90;;;16.81;94.18;94945.00;4983260;28;19913;-47
2022/09/15 10:25:21;;;;;;;;;;;21.90;63.60;;;16.97;93.41;94932.63;4993519;28;19909;-48
2022/09/15 10:28:08;;;;;;;;;;;22.10;63.30;;;16.97;91.65;94947.97;5004965;28;19915;-52
2022/09/15 10:30:35;;;;;;;;;;;22.20;63.00;;;17.05;92.46;94942.59;4974891;28;20012;-47
2022/09/15 10:33:25;;;;;;;;;;;22.20;62.90;;;16.91;92.54;94944.66;4959919;28;19909;-50
2022/09/15 10:36:39;;;;;;;;;;;22.20;63.00;;;16.80;92.48;94952.28;4994613;28;19944;-47
2022/09/15 10:39:32;;;;;;;;;;;22.00;63.00;;;16.85;93.72;94941.34;4966024;28;19913;-47
2022/09/15 10:42:40;;;;;;;;;;;22.00;63.10;;;16.81;93.47;94942.31;4995358;28;19920;-50
2022/09/15 10:45:25;;;;;;;;;;;22.10;63.00;;;16.83;93.49;94938.19;5010496;28;19924;-47
2022/09/15 10:48:22;;;;;;;;;;;22.20;62.80;;;17.06;94.86;94938.00;4977242;28;20441;-49
2022/09/15 10:51:32;;;;;;;;;;;22.40;62.60;;;17.28;94.50;94936.97;5010721;28;20360;-52
2022/09/15 10:54:21;;;;;;;;;;;22.60;62.50;;;17.45;92.92;94925.31;4932557;28;19914;-48
2022/09/15 10:57:29;;;;;;;;;;;22.90;62.50;;;17.79;91.51;94924.41;4966344;28;19913;-52
2022/09/15 11:00:11;;;;;;;;;;;23.20;62.30;;;18.33;88.40;94923.69;4957099;28;19917;-47
2022/09/15 11:02:48;;;;;;;;;;;24.00;61.80;;;18.75;88.16;94926.41;4991443;28;19927;-54
2022/09/15 11:05:47;;;;;;;;;;;24.70;61.00;;;19.05;82.70;94927.81;5010046;28;19909;-47
2022/09/15 11:08:19;;;;;;;;;;;25.20;60.60;;;19.03;80.70;94932.00;4995623;28;19913;-51
2022/09/15 11:11:38;;;;;;;;;;;25.40;59.70;;;18.97;80.16;94927.94;4992578;28;19917;-48
2022/09/15 11:14:32;;;;;;;;;;;25.40;59.10;;;19.05;79.57;94930.53;5011262;28;19944;-50
2022/09/15 11:17:32;;;;;;;;;;;25.40;58.60;;;18.72;80.15;94920.53;4987420;28;19913;-49
2022/09/15 11:20:45;;;;;;;;;;;25.30;58.20;;;18.70;85.40;94938.94;4974188;28;19964;-50
2022/09/15 11:23:27;;;;;;;;;;;24.90;58.00;;;18.38;85.73;94931.59;5008567;28;19970;-47
2022/09/15 11:26:37;;;;;;;;;;;24.50;58.20;;;18.25;86.15;94931.53;4994241;28;19936;-47
2022/09/15 11:29:22;;;;;;;;;;;24.10;58.60;;;17.95;86.24;94928.09;4978095;28;19914;-47
2022/09/15 11:32:07;;;;;;;;;;;23.60;59.10;;;17.83;88.78;94929.91;4980712;28;19909;-47
2022/09/15 11:35:18;;;;;;;;;;;23.20;59.40;;;17.60;89.17;94924.78;5007284;28;19917;-47
2022/09/15 11:37:50;;;;;;;;;;;23.00;59.90;;;17.51;90.01;94924.81;4930503;29;19910;-47
2022/09/15 11:40:44;;;;;;;;;;;22.80;60.30;;;17.57;91.59;94920.81;4986903;28;19951;-47
2022/09/15 11:43:15;;;;;;;;;;;22.80;60.60;;;17.50;90.77;94936.72;4966666;28;19970;-47
2022/09/15 11:45:50;;;;;;;;;;;22.80;60.70;;;17.48;92.63;94932.75;5008998;28;20031;-49
2022/09/15 11:48:47;;;;;;;;;;;22.80;60.80;;;17.48;92.48;94940.84;4976058;28;19913;-48
2022/09/15 11:51:20;;;;;;;;;;;23.00;60.80;;;17.73;92.77;94937.22;4997817;28;20288;-47
2022/09/15 11:54:14;;;;;;;;;;;23.10;60.70;;;17.82;90.63;94939.91;4993822;28;20008;-47
2022/09/15 11:56:45;;;;;;;;;;;23.30;60.70;;;17.81;91.46;94949.09;4978741;28;19920;-47